Terminal Aerodrome Forecast
Issued by NWS Cleveland, OH

Home | Current Version | Previous Version | Graphics & Text | Print | Product List | Glossary On
Versions: 1 2 3 4 5 6 7 8 9 10 11 12 13 14
000
FTUS41 KCLE 142323
TAFYNG
TAF
KYNG 142323Z 1500/1524 VRB04KT P6SM SCT060 BKN200
      TEMPO 1510/1512 5SM BR
     FM151400 21007KT P6SM SCT040 BKN120
     FM152000 27007KT P6SM BKN040 BKN120=

USA.gov is the U.S. government's official web portal to all federal, state and local government web resources and services.